Time;durP1;ratioP1;P1;durP2;ratioP2;P2;SDS_P1;SDS_P2;PMS_P1;PMS_P2;Temp;Humidity;BMP_temperature;BMP_pressure;BME280_temperature;BME280_humidity;BME280_pressure;Samples;Min_cycle;Max_cycle;Signal;HPM_P1;HPM_P2
2023/12/21 00:02:21;;;;;;;28.88;19.70;;;23.80;55.20;;;;;;5105035;28;20024;-73
2023/12/21 00:04:49;;;;;;;29.90;19.40;;;23.70;55.10;;;;;;5112322;28;20043;-73
2023/12/21 00:07:15;;;;;;;31.27;18.90;;;23.90;55.30;;;;;;5110640;28;20099;-73
2023/12/21 00:09:41;;;;;;;28.70;18.27;;;23.80;55.10;;;;;;5110698;28;20421;-73
2023/12/21 00:12:07;;;;;;;33.17;19.40;;;23.80;55.10;;;;;;5112184;28;20026;-74
2023/12/21 00:14:33;;;;;;;32.53;19.42;;;23.80;55.10;;;;;;5112591;28;20066;-74
2023/12/21 00:16:59;;;;;;;28.13;18.65;;;23.80;55.00;;;;;;5110585;28;20135;-73
2023/12/21 00:19:25;;;;;;;28.92;18.40;;;23.90;55.00;;;;;;5112427;28;20114;-74
2023/12/21 00:21:51;;;;;;;33.67;19.35;;;23.70;54.90;;;;;;5112051;28;20024;-73
2023/12/21 00:24:17;;;;;;;32.45;18.30;;;23.70;54.80;;;;;;5111417;28;20065;-73
2023/12/21 00:26:43;;;;;;;29.60;19.33;;;23.70;54.80;;;;;;5111619;28;20031;-74
2023/12/21 00:29:09;;;;;;;27.80;19.63;;;23.60;54.80;;;;;;5112363;28;20039;-74
2023/12/21 00:31:35;;;;;;;29.63;18.20;;;23.70;54.80;;;;;;5110684;28;20028;-73
2023/12/21 00:34:02;;;;;;;35.90;18.42;;;23.60;54.70;;;;;;5106222;28;20076;-73
2023/12/21 00:36:28;;;;;;;29.50;17.75;;;23.70;54.80;;;;;;5089051;28;20613;-73
2023/12/21 00:38:54;;;;;;;33.95;19.63;;;23.60;54.70;;;;;;5088871;28;20128;-73
2023/12/21 00:41:20;;;;;;;25.88;17.08;;;23.60;54.70;;;;;;5089045;28;20272;-73
2023/12/21 00:43:46;;;;;;;28.05;16.70;;;23.40;54.60;;;;;;5088762;28;20080;-73
2023/12/21 00:46:12;;;;;;;29.77;16.08;;;23.50;54.70;;;;;;5089155;28;20051;-72
2023/12/21 00:48:38;;;;;;;20.88;14.73;;;23.50;54.70;;;;;;5070713;28;20039;-73
2023/12/21 00:51:05;;;;;;;20.13;13.13;;;23.70;54.80;;;;;;5088737;28;20076;-73
2023/12/21 00:53:31;;;;;;;21.75;13.90;;;23.60;54.70;;;;;;5088795;28;20044;-73
2023/12/21 00:55:57;;;;;;;20.63;14.13;;;23.50;54.60;;;;;;5087880;28;20056;-73
2023/12/21 00:58:23;;;;;;;23.38;13.73;;;23.60;54.60;;;;;;5087623;28;20068;-73
2023/12/21 01:00:50;;;;;;;27.15;14.55;;;23.60;54.50;;;;;;5088940;28;20136;-72
2023/12/21 01:03:16;;;;;;;23.27;14.75;;;23.90;54.70;;;;;;5087813;28;20040;-73
2023/12/21 01:05:42;;;;;;;24.63;14.57;;;23.70;54.50;;;;;;5088270;28;20074;-73
2023/12/21 01:08:08;;;;;;;20.83;12.10;;;23.50;54.40;;;;;;5077791;28;20047;-73
2023/12/21 01:10:38;;;;;;;20.65;11.73;;;23.60;54.40;;;;;;5085235;28;20040;-73
2023/12/21 01:13:06;;;;;;;23.60;12.88;;;23.70;54.50;;;;;;5089051;28;20048;-73
2023/12/21 01:15:32;;;;;;;17.40;12.15;;;23.70;54.40;;;;;;5070782;28;20036;-72
2023/12/21 01:17:58;;;;;;;17.60;12.27;;;23.70;54.40;;;;;;5085123;28;20059;-73
2023/12/21 01:20:24;;;;;;;21.02;11.82;;;23.70;54.30;;;;;;5071674;28;20111;-73
2023/12/21 01:22:50;;;;;;;19.48;11.95;;;23.70;54.30;;;;;;5084665;28;20052;-73
2023/12/21 01:25:16;;;;;;;18.67;11.48;;;23.60;54.20;;;;;;5070452;28;20035;-73
2023/12/21 01:27:42;;;;;;;15.98;11.75;;;23.70;54.30;;;;;;5086641;28;20105;-73
2023/12/21 01:30:09;;;;;;;22.35;12.07;;;23.60;54.20;;;;;;5088667;28;20043;-73
2023/12/21 01:32:35;;;;;;;18.17;11.10;;;23.60;54.30;;;;;;5066492;28;20051;-73
2023/12/21 01:35:01;;;;;;;18.25;11.15;;;23.60;54.20;;;;;;5088811;28;20032;-73
2023/12/21 01:37:27;;;;;;;15.50;10.55;;;23.50;54.30;;;;;;5070852;28;20152;-74
2023/12/21 01:39:53;;;;;;;19.85;11.45;;;23.50;54.20;;;;;;5103260;28;20050;-73
2023/12/21 01:42:19;;;;;;;16.25;9.98;;;23.50;54.20;;;;;;5109965;28;20032;-73
2023/12/21 01:44:45;;;;;;;17.75;10.35;;;23.50;54.20;;;;;;5111276;28;20032;-73
2023/12/21 01:47:12;;;;;;;15.77;10.23;;;23.50;54.20;;;;;;5110258;28;20106;-73
2023/12/21 01:49:40;;;;;;;18.10;11.50;;;23.40;54.10;;;;;;5110472;28;20107;-73
2023/12/21 01:52:07;;;;;;;17.63;10.93;;;23.50;54.20;;;;;;5110458;28;20539;-73
2023/12/21 01:54:35;;;;;;;19.83;11.00;;;23.50;54.20;;;;;;5108670;28;20023;-73
2023/12/21 01:57:01;;;;;;;13.75;10.57;;;23.60;54.10;;;;;;5111097;28;20102;-72
2023/12/21 01:59:28;;;;;;;13.95;9.75;;;23.50;54.10;;;;;;5111127;28;20410;-73
2023/12/21 02:01:55;;;;;;;13.73;9.32;;;23.50;54.10;;;;;;5110775;28;20035;-73
2023/12/21 02:04:21;;;;;;;18.38;10.57;;;23.60;54.00;;;;;;5104818;28;20042;-73
2023/12/21 02:06:47;;;;;;;16.83;10.23;;;23.70;54.10;;;;;;5110418;28;20032;-73
2023/12/21 02:09:14;;;;;;;16.90;11.02;;;23.50;54.00;;;;;;5110867;28;20161;-73
2023/12/21 02:11:40;;;;;;;16.67;10.80;;;23.60;53.90;;;;;;5110995;28;20047;-72
2023/12/21 02:14:06;;;;;;;16.95;10.38;;;23.60;53.90;;;;;;5109901;28;20036;-73
2023/12/21 02:16:57;;;;;;;14.95;10.15;;;23.60;53.80;;;;;;5111112;28;20067;-73
2023/12/21 02:19:23;;;;;;;14.73;10.02;;;23.50;53.80;;;;;;5106845;28;20088;-73
2023/12/21 02:21:50;;;;;;;19.15;10.75;;;23.50;53.70;;;;;;5110859;28;20128;-74
2023/12/21 02:24:20;;;;;;;17.35;9.85;;;23.70;53.70;;;;;;5112418;28;20219;-73
2023/12/21 02:26:46;;;;;;;13.45;10.20;;;23.40;53.50;;;;;;5113206;28;20039;-72
2023/12/21 02:29:12;;;;;;;14.15;9.60;;;23.40;53.50;;;;;;5112165;28;20027;-73
2023/12/21 02:31:39;;;;;;;17.13;10.70;;;23.50;53.60;;;;;;5095129;28;20040;-73
2023/12/21 02:34:06;;;;;;;15.20;9.80;;;23.50;53.60;;;;;;5114139;28;20036;-72
2023/12/21 02:36:33;;;;;;;16.13;10.40;;;23.40;53.50;;;;;;5113071;28;20498;-73
2023/12/21 02:38:59;;;;;;;20.70;11.18;;;23.40;53.50;;;;;;5063208;28;20102;-73
2023/12/21 02:41:25;;;;;;;17.33;11.23;;;23.40;53.50;;;;;;5111803;28;20522;-73
2023/12/21 02:43:51;;;;;;;13.90;9.82;;;23.40;53.40;;;;;;5113922;28;20074;-73
2023/12/21 02:46:19;;;;;;;17.40;10.02;;;23.50;53.50;;;;;;5113069;28;20403;-73
2023/12/21 02:48:45;;;;;;;19.63;10.77;;;23.40;53.40;;;;;;5113803;28;20047;-72
2023/12/21 02:51:11;;;;;;;17.17;11.10;;;23.40;53.40;;;;;;5114466;28;20027;-73
2023/12/21 02:53:37;;;;;;;15.85;10.10;;;23.30;53.40;;;;;;5114040;28;20414;-73
2023/12/21 02:56:04;;;;;;;18.08;11.15;;;23.50;53.50;;;;;;5113361;28;20100;-73
2023/12/21 02:58:30;;;;;;;20.55;11.30;;;23.30;53.30;;;;;;5113149;28;20038;-73
2023/12/21 03:00:56;;;;;;;16.88;10.50;;;23.40;53.30;;;;;;5114461;28;20039;-73
2023/12/21 03:03:22;;;;;;;17.27;10.43;;;23.50;53.30;;;;;;5113726;28;20020;-73
2023/12/21 03:05:48;;;;;;;17.58;10.93;;;23.40;53.20;;;;;;5113965;28;20527;-72
2023/12/21 03:08:14;;;;;;;17.17;11.02;;;23.60;53.20;;;;;;5113313;27;20031;-72
2023/12/21 03:10:40;;;;;;;16.88;10.93;;;23.40;53.10;;;;;;5113151;28;20023;-72
2023/12/21 03:13:06;;;;;;;18.70;11.07;;;23.50;53.10;;;;;;5112472;28;20130;-73
2023/12/21 03:15:33;;;;;;;17.50;10.70;;;23.50;53.10;;;;;;5113425;28;20126;-73
2023/12/21 03:17:59;;;;;;;17.65;10.80;;;23.40;52.90;;;;;;5112265;28;20473;-73
2023/12/21 03:20:25;;;;;;;20.42;10.93;;;23.40;52.80;;;;;;5113396;28;20066;-73
2023/12/21 03:22:51;;;;;;;19.80;10.55;;;23.40;52.80;;;;;;5113832;28;20031;-73
2023/12/21 03:25:17;;;;;;;16.77;10.48;;;23.40;52.80;;;;;;5113827;28;20536;-72
2023/12/21 03:27:43;;;;;;;17.83;11.85;;;23.30;52.80;;;;;;5113302;28;20742;-73
2023/12/21 03:30:10;;;;;;;16.13;10.13;;;23.30;52.80;;;;;;5113615;28;20027;-73
2023/12/21 03:32:36;;;;;;;17.00;10.80;;;23.30;52.70;;;;;;5110910;28;20044;-73
2023/12/21 03:35:03;;;;;;;15.88;10.63;;;23.20;52.70;;;;;;5113398;28;20630;-74
2023/12/21 03:37:29;;;;;;;14.73;10.30;;;23.40;52.70;;;;;;5112836;28;20047;-73
2023/12/21 03:39:56;;;;;;;16.85;10.35;;;23.20;52.60;;;;;;5113069;28;20486;-73
2023/12/21 03:42:22;;;;;;;20.95;11.02;;;23.20;52.70;;;;;;5112721;28;20040;-72
2023/12/21 03:44:48;;;;;;;14.77;10.05;;;23.30;52.80;;;;;;5092798;28;20048;-74
2023/12/21 03:47:14;;;;;;;14.07;10.40;;;23.20;52.70;;;;;;5112850;28;20172;-74
2023/12/21 03:49:41;;;;;;;16.52;10.75;;;23.20;52.70;;;;;;5112635;28;20066;-74
2023/12/21 03:52:08;;;;;;;14.77;9.68;;;23.20;52.60;;;;;;5111867;28;20031;-74
2023/12/21 03:54:35;;;;;;;18.50;10.32;;;23.20;52.50;;;;;;5112514;28;20069;-73
2023/12/21 03:57:01;;;;;;;18.00;10.05;;;23.20;52.50;;;;;;5112911;28;20055;-73
2023/12/21 03:59:27;;;;;;;17.50;10.77;;;23.30;52.60;;;;;;5112666;28;20542;-73
2023/12/21 04:01:53;;;;;;;14.05;9.60;;;23.40;52.50;;;;;;5112726;28;20711;-73
2023/12/21 04:04:19;;;;;;;20.92;11.48;;;23.30;52.50;;;;;;5075804;28;20108;-73
2023/12/21 04:06:46;;;;;;;17.30;10.80;;;23.30;52.50;;;;;;5112798;28;20039;-73
2023/12/21 04:09:12;;;;;;;15.73;10.98;;;23.30;52.40;;;;;;5112070;28;20019;-73
2023/12/21 04:11:38;;;;;;;16.75;10.35;;;23.30;52.30;;;;;;5110360;28;20024;-73
2023/12/21 04:14:04;;;;;;;17.63;10.20;;;23.30;52.30;;;;;;5110937;28;20035;-73
2023/12/21 04:16:30;;;;;;;15.70;10.50;;;23.20;52.10;;;;;;5111710;28;20048;-73
2023/12/21 04:18:57;;;;;;;17.98;10.50;;;23.30;52.20;;;;;;5112278;28;20023;-73
2023/12/21 04:21:23;;;;;;;16.17;10.98;;;23.30;52.10;;;;;;5111040;28;20463;-73
2023/12/21 04:23:49;;;;;;;13.57;9.93;;;23.30;52.20;;;;;;5112092;28;20073;-73
2023/12/21 04:26:22;;;;;;;16.38;10.80;;;23.20;52.10;;;;;;5112658;28;20040;-73
2023/12/21 04:28:49;;;;;;;13.00;9.95;;;23.20;52.10;;;;;;5107745;28;20024;-73
2023/12/21 04:31:24;;;;;;;17.35;11.70;;;23.20;52.10;;;;;;5111228;28;20032;-73
2023/12/21 04:33:52;;;;;;;16.23;10.02;;;23.20;52.10;;;;;;5091849;28;20043;-73
2023/12/21 04:36:19;;;;;;;15.75;10.07;;;23.10;52.10;;;;;;5091695;28;20376;-73
2023/12/21 04:38:45;;;;;;;17.30;9.80;;;23.10;52.20;;;;;;5095710;28;20062;-73
2023/12/21 04:41:11;;;;;;;18.77;12.18;;;23.10;52.10;;;;;;5110726;28;20466;-73
2023/12/21 04:43:37;;;;;;;17.48;11.00;;;23.10;52.20;;;;;;5092059;28;20040;-74
2023/12/21 04:46:05;;;;;;;21.42;11.15;;;23.20;52.20;;;;;;5110056;28;20031;-73
2023/12/21 04:48:32;;;;;;;18.77;10.93;;;23.10;52.20;;;;;;5110440;28;20107;-73
2023/12/21 04:50:58;;;;;;;20.33;11.18;;;23.30;52.20;;;;;;5111725;28;20118;-73
2023/12/21 04:53:24;;;;;;;17.95;10.50;;;23.20;52.20;;;;;;5111440;28;20063;-73
2023/12/21 04:55:50;;;;;;;19.95;10.27;;;23.20;52.10;;;;;;5111669;28;20043;-74
2023/12/21 04:58:18;;;;;;;16.27;11.25;;;23.20;52.10;;;;;;5075659;28;20390;-74
2023/12/21 05:00:50;;;;;;;17.77;11.25;;;23.30;52.20;;;;;;5111300;28;20467;-73
2023/12/21 05:03:20;;;;;;;17.50;11.38;;;23.20;52.00;;;;;;5111231;28;20053;-73
2023/12/21 05:05:46;;;;;;;25.25;14.38;;;23.30;52.10;;;;;;5111915;28;20039;-73
2023/12/21 05:08:13;;;;;;;35.95;18.27;;;23.30;52.10;;;;;;5111509;28;20016;-74
2023/12/21 05:10:40;;;;;;;27.52;15.27;;;23.20;51.90;;;;;;5111739;28;20115;-73
2023/12/21 05:13:06;;;;;;;19.02;12.85;;;23.30;52.00;;;;;;5110385;28;20045;-74
2023/12/21 05:15:32;;;;;;;18.60;12.90;;;23.30;51.90;;;;;;5111626;28;20083;-74
2023/12/21 05:17:58;;;;;;;35.40;16.52;;;23.20;51.80;;;;;;5111255;28;20050;-73
2023/12/21 05:20:25;;;;;;;30.92;15.80;;;23.30;51.90;;;;;;5111477;28;20047;-73
2023/12/21 05:22:51;;;;;;;19.38;12.50;;;23.30;51.90;;;;;;5111271;28;20035;-73
2023/12/21 05:25:17;;;;;;;27.73;14.23;;;23.10;51.90;;;;;;5111410;28;20035;-74
2023/12/21 05:27:43;;;;;;;19.65;12.93;;;23.20;51.90;;;;;;5111758;28;20043;-74
2023/12/21 05:30:09;;;;;;;21.20;12.02;;;23.20;51.80;;;;;;5110922;28;20058;-73
2023/12/21 05:32:36;;;;;;;22.40;12.35;;;23.10;51.90;;;;;;5111272;28;20108;-73
2023/12/21 05:35:03;;;;;;;22.73;12.63;;;23.10;51.90;;;;;;5111498;28;20173;-73
2023/12/21 05:37:30;;;;;;;18.92;13.13;;;23.00;51.70;;;;;;5111749;28;20048;-73
2023/12/21 05:39:56;;;;;;;25.02;12.35;;;23.00;51.70;;;;;;5111151;28;20138;-73
2023/12/21 05:42:22;;;;;;;22.08;13.57;;;23.00;51.80;;;;;;5106644;28;20039;-72
2023/12/21 05:44:48;;;;;;;22.67;12.15;;;23.00;51.80;;;;;;5080321;28;20032;-71
2023/12/21 05:47:14;;;;;;;14.85;9.95;;;23.20;51.50;;;;;;5104625;28;20035;-71
2023/12/21 05:49:40;;;;;;;7.10;6.03;;;23.00;50.40;;;;;;5098697;28;20028;-72
2023/12/21 05:52:06;;;;;;;7.22;6.03;;;23.10;45.30;;;;;;5100273;28;20048;-74
2023/12/21 05:54:32;;;;;;;10.30;6.57;;;23.20;47.80;;;;;;5101956;28;20037;-72
2023/12/21 05:56:59;;;;;;;10.77;8.43;;;23.00;46.40;;;;;;5099055;28;20031;-71
2023/12/21 05:59:25;;;;;;;11.25;8.63;;;23.10;43.60;;;;;;5101878;28;20038;-72
2023/12/21 06:01:51;;;;;;;11.65;8.60;;;23.20;43.50;;;;;;5105685;28;20028;-71
2023/12/21 06:04:17;;;;;;;12.00;9.52;;;23.10;43.60;;;;;;5102516;28;20059;-74
2023/12/21 06:06:47;;;;;;;10.80;8.40;;;23.40;44.90;;;;;;5103803;28;20471;-70
2023/12/21 06:09:13;;;;;;;10.00;7.43;;;23.30;49.80;;;;;;5107350;28;20047;-70
2023/12/21 06:11:40;;;;;;;10.45;7.75;;;23.40;45.90;;;;;;5104092;28;20028;-70
2023/12/21 06:14:06;;;;;;;13.98;8.68;;;23.40;44.20;;;;;;5106177;28;20028;-70
2023/12/21 06:16:32;;;;;;;26.08;16.52;;;23.50;47.20;;;;;;5105352;28;20388;-68
2023/12/21 06:19:00;;;;;;;29.55;16.05;;;23.60;55.10;;;;;;5109142;28;20109;-71
2023/12/21 06:21:26;;;;;;;31.30;16.75;;;23.70;53.80;;;;;;5108434;28;20036;-72
2023/12/21 06:23:52;;;;;;;27.15;16.13;;;23.70;53.50;;;;;;5109348;28;20020;-83
2023/12/21 06:26:18;;;;;;;27.17;15.93;;;23.80;53.70;;;;;;5112320;28;20036;-73
2023/12/21 06:28:44;;;;;;;20.35;13.00;;;23.80;54.00;;;;;;5113889;28;20031;-77
2023/12/21 06:31:14;;;;;;;25.50;14.35;;;23.90;54.50;;;;;;5107426;28;20032;-77
2023/12/21 06:33:40;;;;;;;27.27;15.60;;;23.60;54.50;;;;;;5106828;28;20024;-77
2023/12/21 06:36:07;;;;;;;29.30;15.63;;;23.60;54.80;;;;;;5113134;28;20444;-79
2023/12/21 06:38:33;;;;;;;30.60;16.67;;;23.60;54.90;;;;;;5113425;28;20729;-74
2023/12/21 06:40:59;;;;;;;30.80;16.33;;;23.70;54.90;;;;;;5114744;28;20045;-83
2023/12/21 06:43:25;;;;;;;39.85;17.50;;;23.70;55.10;;;;;;5114261;28;20479;-75
2023/12/21 06:45:51;;;;;;;26.58;14.63;;;23.70;55.20;;;;;;5114279;28;20074;-79
2023/12/21 06:48:17;;;;;;;35.13;17.42;;;23.60;55.20;;;;;;5114037;28;20031;-76
2023/12/21 06:50:44;;;;;;;29.05;16.88;;;23.60;55.40;;;;;;5113811;28;20039;-77
2023/12/21 06:53:15;;;;;;;34.03;19.50;;;23.60;55.60;;;;;;5114380;28;20059;-77
2023/12/21 06:55:42;;;;;;;37.20;21.52;;;23.60;55.80;;;;;;5113473;28;20511;-77
2023/12/21 06:58:08;;;;;;;34.92;19.67;;;23.50;56.20;;;;;;5113359;28;20026;-74
2023/12/21 07:00:35;;;;;;;36.42;19.60;;;23.60;56.40;;;;;;5114022;28;20054;-75
2023/12/21 07:03:01;;;;;;;40.42;22.23;;;23.50;56.40;;;;;;5113539;28;20055;-77
2023/12/21 07:05:27;;;;;;;33.38;19.75;;;23.60;56.40;;;;;;5112619;28;20040;-74
2023/12/21 07:07:54;;;;;;;31.80;20.38;;;23.50;56.30;;;;;;5109164;28;20019;-75
2023/12/21 07:10:23;;;;;;;36.28;19.30;;;23.70;56.30;;;;;;5109593;28;20023;-76
2023/12/21 07:12:49;;;;;;;27.45;16.42;;;23.50;56.00;;;;;;5103958;28;20111;-71
2023/12/21 07:15:16;;;;;;;33.40;19.10;;;23.60;55.90;;;;;;5092171;28;20058;-70
2023/12/21 07:17:42;;;;;;;28.33;16.55;;;23.70;55.50;;;;;;5109877;28;20055;-75
2023/12/21 07:20:09;;;;;;;23.90;17.17;;;23.60;55.10;;;;;;5114019;28;20061;-76
2023/12/21 07:22:35;;;;;;;35.00;17.95;;;23.60;55.00;;;;;;5114408;28;20028;-75
2023/12/21 07:25:01;;;;;;;33.25;17.45;;;23.50;56.80;;;;;;5112755;28;20104;-81
2023/12/21 07:27:27;;;;;;;27.58;16.35;;;23.60;56.50;;;;;;5113630;28;20115;-73
2023/12/21 07:29:54;;;;;;;29.58;17.13;;;23.50;56.50;;;;;;5113208;28;20040;-73
2023/12/21 07:32:20;;;;;;;30.70;17.38;;;23.50;56.60;;;;;;5112656;28;20040;-72
2023/12/21 07:34:46;;;;;;;25.67;16.45;;;23.50;56.60;;;;;;5111703;28;20042;-72
2023/12/21 07:37:16;;;;;;;32.55;17.58;;;23.50;56.70;;;;;;5112137;28;20514;-72
2023/12/21 07:39:43;;;;;;;26.90;17.73;;;23.60;56.70;;;;;;5112262;28;20051;-74
2023/12/21 07:42:09;;;;;;;23.90;16.75;;;23.50;56.00;;;;;;5105506;28;20032;-73
2023/12/21 07:44:37;;;;;;;31.30;16.27;;;23.50;56.20;;;;;;5108633;28;20140;-72
2023/12/21 07:47:03;;;;;;;30.25;18.40;;;23.50;56.00;;;;;;5106936;28;20051;-72
2023/12/21 07:49:29;;;;;;;27.83;16.50;;;23.40;55.60;;;;;;5110971;28;20035;-73
2023/12/21 07:51:55;;;;;;;29.70;16.17;;;23.50;55.60;;;;;;5111917;27;20023;-74
2023/12/21 07:54:21;;;;;;;31.73;16.63;;;23.40;55.50;;;;;;5112507;28;20099;-74
2023/12/21 07:56:48;;;;;;;27.63;17.60;;;23.40;55.80;;;;;;5111372;28;20479;-73
2023/12/21 07:59:14;;;;;;;33.75;16.67;;;23.50;55.90;;;;;;5110703;28;20043;-73
2023/12/21 08:01:40;;;;;;;31.08;16.80;;;23.50;55.90;;;;;;5089066;28;20377;-76
2023/12/21 08:04:08;;;;;;;26.35;15.75;;;23.60;56.10;;;;;;5110057;28;20039;-74
2023/12/21 08:06:35;;;;;;;24.25;14.65;;;23.40;56.10;;;;;;5111613;28;20471;-72
2023/12/21 08:09:01;;;;;;;26.70;15.38;;;23.40;56.50;;;;;;5111457;28;20024;-75
2023/12/21 08:11:27;;;;;;;20.13;10.82;;;23.50;56.50;;;;;;5109037;28;20134;-75
2023/12/21 08:13:53;;;;;;;26.83;14.90;;;23.50;56.70;;;;;;5111126;28;20085;-73
2023/12/21 08:16:20;;;;;;;34.65;16.80;;;23.50;56.40;;;;;;5107067;28;20052;-73
2023/12/21 08:18:46;;;;;;;30.73;17.55;;;23.60;55.30;;;;;;5107429;28;20039;-75
2023/12/21 08:21:12;;;;;;;29.35;17.88;;;23.50;54.60;;;;;;5112169;28;20043;-75
2023/12/21 08:23:39;;;;;;;14.23;7.65;;;23.50;54.70;;;;;;5111376;28;20035;-71
2023/12/21 08:26:06;;;;;;;13.13;7.93;;;23.60;50.80;;;;;;5110116;28;20024;-77
2023/12/21 08:28:32;;;;;;;13.27;8.10;;;23.50;53.50;;;;;;5112598;28;20027;-71
2023/12/21 08:31:00;;;;;;;31.35;9.82;;;23.50;52.00;;;;;;5109840;28;20059;-73
2023/12/21 08:33:26;;;;;;;13.85;10.30;;;23.70;50.80;;;;;;5111430;28;20036;-76
2023/12/21 08:35:52;;;;;;;14.75;9.88;;;23.90;53.70;;;;;;5096875;28;20561;-75
2023/12/21 08:38:18;;;;;;;30.38;18.88;;;23.90;55.00;;;;;;5099319;28;20487;-73
2023/12/21 08:40:47;;;;;;;30.27;17.90;;;24.10;52.10;;;;;;5110813;28;20080;-74
2023/12/21 08:43:14;;;;;;;31.58;19.75;;;23.90;52.80;;;;;;5106247;28;20109;-71
2023/12/21 08:45:40;;;;;;;30.08;18.35;;;24.00;52.90;;;;;;5086472;28;20089;-71
2023/12/21 08:48:06;;;;;;;32.72;20.02;;;24.10;53.30;;;;;;5105395;28;20039;-74
2023/12/21 08:50:33;;;;;;;37.75;20.40;;;24.00;53.40;;;;;;5100671;28;20118;-73
2023/12/21 08:53:00;;;;;;;33.05;20.35;;;24.10;53.60;;;;;;5104595;28;20039;-68
2023/12/21 08:55:30;;;;;;;29.70;19.35;;;24.00;53.70;;;;;;5097743;28;20114;-71
2023/12/21 08:57:57;;;;;;;30.55;18.73;;;23.90;53.90;;;;;;5110108;28;20461;-69
2023/12/21 09:00:24;;;;;;;35.92;20.17;;;24.00;53.90;;;;;;5108522;28;20854;-68
2023/12/21 09:02:51;;;;;;;28.73;17.08;;;24.20;54.00;;;;;;5110185;28;20031;-69
2023/12/21 09:05:17;;;;;;;24.08;17.02;;;24.00;53.80;;;;;;5110845;28;20044;-70
2023/12/21 09:07:44;;;;;;;26.35;17.58;;;24.00;54.00;;;;;;5110818;28;20027;-69
2023/12/21 09:10:10;;;;;;;30.80;18.95;;;23.90;54.50;;;;;;5110928;28;20027;-69
2023/12/21 09:12:37;;;;;;;32.50;18.75;;;24.10;56.10;;;;;;5110662;28;20040;-69
2023/12/21 09:15:05;;;;;;;28.90;17.40;;;24.10;55.40;;;;;;5109638;28;20047;-69
2023/12/21 09:17:32;;;;;;;22.70;15.05;;;24.10;54.80;;;;;;5110757;28;20127;-69
2023/12/21 09:19:58;;;;;;;19.65;13.55;;;24.10;54.70;;;;;;5110182;28;20019;-69
2023/12/21 09:22:24;;;;;;;19.90;13.48;;;24.10;54.70;;;;;;5096774;28;20028;-68
2023/12/21 09:24:50;;;;;;;19.27;13.48;;;24.10;54.80;;;;;;5096475;28;20031;-68
2023/12/21 09:27:16;;;;;;;22.50;12.90;;;24.10;54.80;;;;;;5109391;28;20111;-69
2023/12/21 09:29:42;;;;;;;24.63;14.15;;;24.00;54.50;;;;;;5111096;28;20088;-69
2023/12/21 09:32:09;;;;;;;29.00;14.63;;;24.00;54.40;;;;;;5093710;28;20039;-69
2023/12/21 09:34:35;;;;;;;23.10;13.57;;;23.90;54.40;;;;;;5113595;28;20031;-69
2023/12/21 09:37:05;;;;;;;27.38;15.95;;;24.10;54.40;;;;;;5113883;28;20039;-68
2023/12/21 09:39:32;;;;;;;26.63;16.80;;;24.00;54.30;;;;;;5115480;28;20088;-69
2023/12/21 09:42:00;;;;;;;27.90;18.30;;;24.00;54.30;;;;;;5110597;28;20032;-69
2023/12/21 09:44:27;;;;;;;28.88;17.60;;;24.00;54.40;;;;;;5105480;28;20036;-69
2023/12/21 09:46:55;;;;;;;30.02;17.42;;;24.00;54.40;;;;;;5104371;28;20036;-70
2023/12/21 09:49:22;;;;;;;27.25;16.25;;;23.90;54.50;;;;;;5109828;28;20081;-69
2023/12/21 09:51:49;;;;;;;24.52;16.17;;;23.80;54.50;;;;;;5111426;28;20035;-71
2023/12/21 09:54:17;;;;;;;20.23;14.48;;;23.70;54.60;;;;;;5114341;28;20454;-69
2023/12/21 09:56:46;;;;;;;25.42;17.02;;;23.70;54.70;;;;;;5108572;28;20374;-69
2023/12/21 09:59:13;;;;;;;28.13;15.02;;;23.70;54.70;;;;;;5114120;27;20042;-69
2023/12/21 10:01:39;;;;;;;25.63;15.57;;;23.70;54.90;;;;;;5105861;28;20038;-68
2023/12/21 10:04:08;;;;;;;25.27;14.77;;;23.60;54.90;;;;;;5092458;28;20387;-71
2023/12/21 10:06:34;;;;;;;23.67;13.98;;;23.70;55.00;;;;;;5101498;28;20016;-69
2023/12/21 10:09:04;;;;;;;22.20;14.80;;;23.70;55.00;;;;;;5105764;28;20071;-70
2023/12/21 10:11:31;;;;;;;22.88;13.45;;;23.70;54.90;;;;;;5112421;28;20028;-69
2023/12/21 10:14:01;;;;;;;19.98;12.00;;;23.60;55.00;;;;;;5113620;28;20042;-69
2023/12/21 10:16:27;;;;;;;20.08;10.68;;;23.60;55.00;;;;;;5112574;28;20126;-69
2023/12/21 10:18:53;;;;;;;17.40;10.40;;;23.60;55.00;;;;;;5106846;28;20054;-69
2023/12/21 10:21:21;;;;;;;16.95;10.30;;;23.50;55.00;;;;;;5114195;28;20055;-69
2023/12/21 10:23:48;;;;;;;16.17;10.15;;;23.60;54.90;;;;;;5112534;28;20059;-69
2023/12/21 10:26:14;;;;;;;15.98;10.50;;;23.60;54.90;;;;;;5113783;28;20031;-69
2023/12/21 10:28:42;;;;;;;17.67;10.98;;;23.50;55.00;;;;;;5107982;28;20055;-69
2023/12/21 10:31:10;;;;;;;17.33;8.98;;;23.50;55.00;;;;;;5100208;28;20034;-69
2023/12/21 10:33:36;;;;;;;17.92;10.25;;;23.40;55.00;;;;;;5113778;28;20035;-69
2023/12/21 10:36:03;;;;;;;18.23;9.98;;;23.50;55.10;;;;;;5113351;28;20067;-69
2023/12/21 10:38:30;;;;;;;20.17;10.95;;;23.50;55.10;;;;;;5113647;28;20058;-69
2023/12/21 10:40:58;;;;;;;18.88;10.05;;;23.50;55.10;;;;;;5107678;28;20518;-69
2023/12/21 10:43:24;;;;;;;14.13;9.40;;;23.60;55.10;;;;;;5111512;28;20096;-69
2023/12/21 10:45:51;;;;;;;16.17;9.55;;;23.50;55.00;;;;;;5112709;28;20048;-69
2023/12/21 10:48:21;;;;;;;18.77;8.75;;;23.50;55.00;;;;;;5105077;28;20514;-69
2023/12/21 10:50:49;;;;;;;18.55;8.68;;;23.50;55.00;;;;;;5113509;28;20141;-69
2023/12/21 10:53:16;;;;;;;14.45;8.23;;;23.50;55.00;;;;;;5112017;28;20043;-69
2023/12/21 10:55:45;;;;;;;13.65;8.18;;;23.50;55.00;;;;;;5093612;28;20120;-69
2023/12/21 10:58:12;;;;;;;14.63;8.23;;;23.60;55.10;;;;;;5112782;28;20036;-69
2023/12/21 11:00:40;;;;;;;17.58;9.48;;;23.70;55.20;;;;;;5113054;28;20480;-69
2023/12/21 11:03:07;;;;;;;16.83;8.25;;;23.70;55.20;;;;;;5112974;28;20120;-69
2023/12/21 11:05:35;;;;;;;13.43;8.07;;;23.80;55.40;;;;;;5111536;28;20084;-69
2023/12/21 11:08:01;;;;;;;12.52;7.10;;;23.70;55.40;;;;;;5112403;28;20036;-69
2023/12/21 11:10:28;;;;;;;15.07;7.05;;;23.70;55.40;;;;;;5113132;28;20476;-69
2023/12/21 11:12:54;;;;;;;10.77;7.13;;;23.80;55.60;;;;;;5075557;28;20055;-69
2023/12/21 11:15:20;;;;;;;10.83;6.63;;;23.70;55.60;;;;;;5111905;28;20051;-69
2023/12/21 11:17:56;;;;;;;8.15;6.28;;;23.80;55.60;;;;;;5110305;28;20054;-69
2023/12/21 11:20:28;;;;;;;11.73;5.70;;;23.90;55.90;;;;;;5112409;27;20019;-70
2023/12/21 11:22:56;;;;;;;6.45;5.03;;;24.00;55.90;;;;;;5112040;28;20024;-70
2023/12/21 11:25:22;;;;;;;7.35;5.30;;;23.90;55.80;;;;;;5096849;28;20054;-70
2023/12/21 11:27:51;;;;;;;6.43;4.60;;;23.90;55.70;;;;;;5112501;28;20043;-70
2023/12/21 11:30:19;;;;;;;101.05;19.10;;;23.90;56.10;;;;;;5108892;28;20036;-72
2023/12/21 11:32:46;;;;;;;11.38;6.90;;;24.10;52.80;;;;;;5111603;28;20368;-71
2023/12/21 11:35:23;;;;;;;11.73;7.43;;;24.00;55.30;;;;;;5110683;28;20038;-72
2023/12/21 11:37:57;;;;;;;10.23;6.60;;;24.10;46.80;;;;;;5108581;27;20751;-73
2023/12/21 11:40:24;;;;;;;9.50;6.53;;;24.00;47.00;;;;;;5092546;28;20117;-72
2023/12/21 11:42:56;;;;;;;13.02;6.45;;;24.00;43.20;;;;;;5108514;28;20032;-71
2023/12/21 11:45:24;;;;;;;12.05;6.50;;;24.00;43.70;;;;;;5074751;28;20058;-68
2023/12/21 11:47:54;;;;;;;10.55;6.57;;;24.00;48.70;;;;;;5105115;28;20689;-68
2023/12/21 11:50:24;;;;;;;8.98;6.07;;;24.10;50.00;;;;;;5111782;28;20027;-68
2023/12/21 11:52:50;;;;;;;10.57;5.28;;;24.20;48.80;;;;;;5111745;28;20100;-70
2023/12/21 11:55:26;;;;;;;9.68;5.80;;;24.30;48.40;;;;;;5102895;28;20116;-70
2023/12/21 11:58:19;;;;;;;10.05;6.10;;;24.50;52.30;;;;;;5111151;28;20050;-69
2023/12/21 12:00:49;;;;;;;8.50;5.28;;;24.60;45.20;;;;;;5111682;28;20039;-70
2023/12/21 12:03:17;;;;;;;7.82;5.18;;;24.40;42.90;;;;;;5111006;28;20031;-71
2023/12/21 12:05:44;;;;;;;8.43;5.22;;;24.60;43.00;;;;;;5110080;28;20665;-70
2023/12/21 12:08:11;;;;;;;6.15;4.20;;;24.60;43.00;;;;;;5098061;28;20074;-70
2023/12/21 12:10:37;;;;;;;6.80;4.90;;;24.50;41.60;;;;;;5091749;28;20031;-70
2023/12/21 12:13:04;;;;;;;14.02;11.02;;;24.50;44.40;;;;;;5110947;28;20491;-72
2023/12/21 12:15:33;;;;;;;22.33;14.18;;;24.60;43.40;;;;;;5110437;28;20103;-71
2023/12/21 12:18:00;;;;;;;13.27;10.85;;;24.60;43.80;;;;;;5111082;28;20108;-74
2023/12/21 12:20:28;;;;;;;7.80;4.93;;;24.70;45.20;;;;;;5111067;28;20035;-71
2023/12/21 12:22:54;;;;;;;6.53;4.43;;;24.60;41.00;;;;;;5109559;28;20036;-70
2023/12/21 12:25:21;;;;;;;8.27;5.32;;;24.70;38.90;;;;;;5111184;28;20027;-73
2023/12/21 12:27:48;;;;;;;7.47;4.90;;;24.60;38.90;;;;;;5105994;28;20032;-69
2023/12/21 12:30:15;;;;;;;6.53;4.93;;;24.70;41.10;;;;;;5111245;28;20044;-70